sensor_id;sensor_type;location;lat;lon;timestamp;P1;durP1;ratioP1;P2;durP2;ratioP2
14748;SDS011;7466;53.574;9.976;2023-08-31T00:01:30;13.73;;;12.63;;
14748;SDS011;7466;53.574;9.976;2023-08-31T00:03:59;13.43;;;12.33;;
14748;SDS011;7466;53.574;9.976;2023-08-31T00:06:26;14.57;;;13.23;;
14748;SDS011;7466;53.574;9.976;2023-08-31T00:08:53;13.43;;;12.43;;
14748;SDS011;7466;53.574;9.976;2023-08-31T00:11:19;13.27;;;12.17;;
14748;SDS011;7466;53.574;9.976;2023-08-31T00:13:47;13.27;;;12.07;;
14748;SDS011;7466;53.574;9.976;2023-08-31T00:16:13;13.13;;;12.03;;
14748;SDS011;7466;53.574;9.976;2023-08-31T00:18:40;12.33;;;11.23;;
14748;SDS011;7466;53.574;9.976;2023-08-31T00:21:08;12.60;;;11.53;;
14748;SDS011;7466;53.574;9.976;2023-08-31T00:23:35;12.57;;;11.57;;
14748;SDS011;7466;53.574;9.976;2023-08-31T00:26:02;12.20;;;11.00;;
14748;SDS011;7466;53.574;9.976;2023-08-31T00:28:30;12.80;;;11.70;;
14748;SDS011;7466;53.574;9.976;2023-08-31T00:30:56;11.67;;;10.77;;
14748;SDS011;7466;53.574;9.976;2023-08-31T00:33:28;11.77;;;10.87;;
14748;SDS011;7466;53.574;9.976;2023-08-31T00:35:55;12.03;;;11.03;;
14748;SDS011;7466;53.574;9.976;2023-08-31T00:38:27;11.97;;;10.97;;
14748;SDS011;7466;53.574;9.976;2023-08-31T00:40:54;11.97;;;11.07;;
14748;SDS011;7466;53.574;9.976;2023-08-31T00:43:20;12.43;;;11.10;;
14748;SDS011;7466;53.574;9.976;2023-08-31T00:45:48;11.83;;;10.93;;
14748;SDS011;7466;53.574;9.976;2023-08-31T00:48:16;12.10;;;11.10;;
14748;SDS011;7466;53.574;9.976;2023-08-31T00:50:43;12.87;;;11.47;;
14748;SDS011;7466;53.574;9.976;2023-08-31T00:53:11;12.87;;;11.67;;
14748;SDS011;7466;53.574;9.976;2023-08-31T00:55:39;12.20;;;11.10;;
14748;SDS011;7466;53.574;9.976;2023-08-31T00:58:06;11.83;;;10.77;;
14748;SDS011;7466;53.574;9.976;2023-08-31T01:00:33;12.47;;;11.23;;
14748;SDS011;7466;53.574;9.976;2023-08-31T01:03:12;12.77;;;11.57;;
14748;SDS011;7466;53.574;9.976;2023-08-31T01:05:46;12.27;;;11.27;;
14748;SDS011;7466;53.574;9.976;2023-08-31T01:08:21;12.23;;;11.13;;
14748;SDS011;7466;53.574;9.976;2023-08-31T01:11:01;12.93;;;11.63;;
14748;SDS011;7466;53.574;9.976;2023-08-31T01:13:33;13.80;;;12.50;;
14748;SDS011;7466;53.574;9.976;2023-08-31T01:16:03;13.37;;;12.17;;
14748;SDS011;7466;53.574;9.976;2023-08-31T01:18:33;12.27;;;11.27;;
14748;SDS011;7466;53.574;9.976;2023-08-31T01:21:05;13.20;;;12.03;;
14748;SDS011;7466;53.574;9.976;2023-08-31T01:23:46;13.17;;;11.97;;
14748;SDS011;7466;53.574;9.976;2023-08-31T01:26:16;13.10;;;11.73;;
14748;SDS011;7466;53.574;9.976;2023-08-31T01:28:43;12.33;;;11.13;;
14748;SDS011;7466;53.574;9.976;2023-08-31T01:31:10;12.73;;;11.43;;
14748;SDS011;7466;53.574;9.976;2023-08-31T01:33:37;11.63;;;10.43;;
14748;SDS011;7466;53.574;9.976;2023-08-31T01:36:04;12.53;;;11.17;;
14748;SDS011;7466;53.574;9.976;2023-08-31T01:38:38;12.47;;;11.23;;
14748;SDS011;7466;53.574;9.976;2023-08-31T01:41:12;13.13;;;11.83;;
14748;SDS011;7466;53.574;9.976;2023-08-31T01:43:42;12.13;;;11.07;;
14748;SDS011;7466;53.574;9.976;2023-08-31T01:46:10;12.30;;;11.17;;
14748;SDS011;7466;53.574;9.976;2023-08-31T01:48:38;12.80;;;11.60;;
14748;SDS011;7466;53.574;9.976;2023-08-31T01:51:06;12.03;;;10.93;;
14748;SDS011;7466;53.574;9.976;2023-08-31T01:53:33;12.63;;;11.33;;
14748;SDS011;7466;53.574;9.976;2023-08-31T01:56:00;12.23;;;11.10;;
14748;SDS011;7466;53.574;9.976;2023-08-31T01:58:28;12.10;;;11.10;;
14748;SDS011;7466;53.574;9.976;2023-08-31T02:00:55;13.00;;;11.80;;
14748;SDS011;7466;53.574;9.976;2023-08-31T02:03:22;12.97;;;11.77;;
14748;SDS011;7466;53.574;9.976;2023-08-31T02:05:49;13.30;;;12.00;;
14748;SDS011;7466;53.574;9.976;2023-08-31T02:08:15;13.37;;;12.20;;
14748;SDS011;7466;53.574;9.976;2023-08-31T02:10:43;12.13;;;11.23;;
14748;SDS011;7466;53.574;9.976;2023-08-31T02:13:10;13.60;;;12.20;;
14748;SDS011;7466;53.574;9.976;2023-08-31T02:15:38;13.53;;;12.10;;
14748;SDS011;7466;53.574;9.976;2023-08-31T02:18:05;14.00;;;12.60;;
14748;SDS011;7466;53.574;9.976;2023-08-31T02:20:33;12.90;;;11.70;;
14748;SDS011;7466;53.574;9.976;2023-08-31T02:23:00;12.50;;;11.50;;
14748;SDS011;7466;53.574;9.976;2023-08-31T02:25:27;13.07;;;11.77;;
14748;SDS011;7466;53.574;9.976;2023-08-31T02:27:53;13.97;;;12.57;;
14748;SDS011;7466;53.574;9.976;2023-08-31T02:30:21;13.37;;;11.77;;
14748;SDS011;7466;53.574;9.976;2023-08-31T02:32:49;14.57;;;12.13;;
14748;SDS011;7466;53.574;9.976;2023-08-31T02:35:15;12.63;;;11.40;;
14748;SDS011;7466;53.574;9.976;2023-08-31T02:37:42;13.17;;;11.97;;
14748;SDS011;7466;53.574;9.976;2023-08-31T02:40:09;13.60;;;12.13;;
14748;SDS011;7466;53.574;9.976;2023-08-31T02:42:37;13.10;;;12.00;;
14748;SDS011;7466;53.574;9.976;2023-08-31T02:45:04;15.50;;;11.83;;
14748;SDS011;7466;53.574;9.976;2023-08-31T02:47:31;13.20;;;11.77;;
14748;SDS011;7466;53.574;9.976;2023-08-31T02:50:00;13.77;;;11.97;;
14748;SDS011;7466;53.574;9.976;2023-08-31T02:52:26;12.67;;;11.57;;
14748;SDS011;7466;53.574;9.976;2023-08-31T02:54:53;12.73;;;11.50;;
14748;SDS011;7466;53.574;9.976;2023-08-31T02:57:20;13.70;;;10.83;;
14748;SDS011;7466;53.574;9.976;2023-08-31T02:59:49;13.33;;;10.67;;
14748;SDS011;7466;53.574;9.976;2023-08-31T03:02:16;11.93;;;10.77;;
14748;SDS011;7466;53.574;9.976;2023-08-31T03:04:42;12.17;;;11.03;;
14748;SDS011;7466;53.574;9.976;2023-08-31T03:07:10;13.00;;;11.20;;
14748;SDS011;7466;53.574;9.976;2023-08-31T03:09:39;11.93;;;10.60;;
14748;SDS011;7466;53.574;9.976;2023-08-31T03:12:06;13.33;;;10.80;;
14748;SDS011;7466;53.574;9.976;2023-08-31T03:14:33;11.93;;;10.40;;
14748;SDS011;7466;53.574;9.976;2023-08-31T03:16:59;11.10;;;9.80;;
14748;SDS011;7466;53.574;9.976;2023-08-31T03:19:26;11.43;;;10.27;;
14748;SDS011;7466;53.574;9.976;2023-08-31T03:21:53;9.83;;;8.93;;
14748;SDS011;7466;53.574;9.976;2023-08-31T03:24:21;11.77;;;10.67;;
14748;SDS011;7466;53.574;9.976;2023-08-31T03:26:48;11.80;;;9.80;;
14748;SDS011;7466;53.574;9.976;2023-08-31T03:29:15;12.97;;;9.23;;
14748;SDS011;7466;53.574;9.976;2023-08-31T03:31:41;10.53;;;9.43;;
14748;SDS011;7466;53.574;9.976;2023-08-31T03:34:08;10.00;;;9.00;;
14748;SDS011;7466;53.574;9.976;2023-08-31T03:36:35;9.40;;;8.50;;
14748;SDS011;7466;53.574;9.976;2023-08-31T03:39:02;9.93;;;8.77;;
14748;SDS011;7466;53.574;9.976;2023-08-31T03:41:31;10.03;;;8.33;;
14748;SDS011;7466;53.574;9.976;2023-08-31T03:43:57;10.20;;;8.60;;
14748;SDS011;7466;53.574;9.976;2023-08-31T03:46:24;9.60;;;8.60;;
14748;SDS011;7466;53.574;9.976;2023-08-31T03:48:51;8.03;;;7.30;;
14748;SDS011;7466;53.574;9.976;2023-08-31T03:51:18;10.87;;;7.60;;
14748;SDS011;7466;53.574;9.976;2023-08-31T03:53:45;9.57;;;7.77;;
14748;SDS011;7466;53.574;9.976;2023-08-31T03:56:11;8.33;;;7.57;;
14748;SDS011;7466;53.574;9.976;2023-08-31T03:58:39;7.90;;;7.20;;
14748;SDS011;7466;53.574;9.976;2023-08-31T04:01:06;10.47;;;7.30;;
14748;SDS011;7466;53.574;9.976;2023-08-31T04:03:36;8.47;;;7.57;;
14748;SDS011;7466;53.574;9.976;2023-08-31T04:06:02;9.53;;;7.60;;
14748;SDS011;7466;53.574;9.976;2023-08-31T04:08:30;10.87;;;7.07;;
14748;SDS011;7466;53.574;9.976;2023-08-31T04:10:56;8.50;;;6.90;;
14748;SDS011;7466;53.574;9.976;2023-08-31T04:13:23;9.57;;;6.90;;
14748;SDS011;7466;53.574;9.976;2023-08-31T04:15:51;8.07;;;7.17;;
14748;SDS011;7466;53.574;9.976;2023-08-31T04:18:19;8.83;;;6.80;;
14748;SDS011;7466;53.574;9.976;2023-08-31T04:20:47;8.33;;;6.77;;
14748;SDS011;7466;53.574;9.976;2023-08-31T04:23:15;11.30;;;7.63;;
14748;SDS011;7466;53.574;9.976;2023-08-31T04:25:42;7.80;;;7.00;;
14748;SDS011;7466;53.574;9.976;2023-08-31T04:28:09;8.20;;;7.40;;
14748;SDS011;7466;53.574;9.976;2023-08-31T04:30:36;7.73;;;6.93;;
14748;SDS011;7466;53.574;9.976;2023-08-31T04:33:04;7.70;;;7.00;;
14748;SDS011;7466;53.574;9.976;2023-08-31T04:35:32;8.13;;;7.20;;
14748;SDS011;7466;53.574;9.976;2023-08-31T04:37:59;7.60;;;6.73;;
14748;SDS011;7466;53.574;9.976;2023-08-31T04:40:27;9.27;;;7.30;;
14748;SDS011;7466;53.574;9.976;2023-08-31T04:42:54;8.77;;;7.50;;
14748;SDS011;7466;53.574;9.976;2023-08-31T04:45:21;8.83;;;7.70;;
14748;SDS011;7466;53.574;9.976;2023-08-31T04:47:47;9.83;;;7.83;;
14748;SDS011;7466;53.574;9.976;2023-08-31T04:50:17;9.23;;;7.60;;
14748;SDS011;7466;53.574;9.976;2023-08-31T04:52:44;8.27;;;7.50;;
14748;SDS011;7466;53.574;9.976;2023-08-31T04:55:12;9.43;;;7.70;;
14748;SDS011;7466;53.574;9.976;2023-08-31T04:57:39;9.10;;;7.60;;
14748;SDS011;7466;53.574;9.976;2023-08-31T05:00:06;8.23;;;7.53;;
14748;SDS011;7466;53.574;9.976;2023-08-31T05:02:35;10.13;;;7.20;;
14748;SDS011;7466;53.574;9.976;2023-08-31T05:05:02;8.70;;;7.07;;
14748;SDS011;7466;53.574;9.976;2023-08-31T05:07:31;8.87;;;7.30;;
14748;SDS011;7466;53.574;9.976;2023-08-31T05:09:58;10.47;;;7.70;;
14748;SDS011;7466;53.574;9.976;2023-08-31T05:12:24;11.03;;;6.90;;
14748;SDS011;7466;53.574;9.976;2023-08-31T05:14:51;12.53;;;7.87;;
14748;SDS011;7466;53.574;9.976;2023-08-31T05:17:18;7.77;;;7.00;;
14748;SDS011;7466;53.574;9.976;2023-08-31T05:19:44;11.50;;;7.93;;
14748;SDS011;7466;53.574;9.976;2023-08-31T05:22:12;9.13;;;7.43;;
14748;SDS011;7466;53.574;9.976;2023-08-31T05:24:40;7.47;;;6.77;;
14748;SDS011;7466;53.574;9.976;2023-08-31T05:27:07;12.03;;;7.37;;
14748;SDS011;7466;53.574;9.976;2023-08-31T05:29:40;8.67;;;6.83;;
14748;SDS011;7466;53.574;9.976;2023-08-31T05:32:07;10.00;;;7.20;;
14748;SDS011;7466;53.574;9.976;2023-08-31T05:34:34;8.00;;;6.70;;
14748;SDS011;7466;53.574;9.976;2023-08-31T05:37:04;7.57;;;6.80;;
14748;SDS011;7466;53.574;9.976;2023-08-31T05:39:31;9.70;;;7.40;;
14748;SDS011;7466;53.574;9.976;2023-08-31T05:41:59;8.03;;;7.23;;
14748;SDS011;7466;53.574;9.976;2023-08-31T05:44:26;9.20;;;6.97;;
14748;SDS011;7466;53.574;9.976;2023-08-31T05:46:53;8.10;;;7.00;;
14748;SDS011;7466;53.574;9.976;2023-08-31T05:49:19;9.70;;;6.53;;
14748;SDS011;7466;53.574;9.976;2023-08-31T05:51:46;8.07;;;6.33;;
14748;SDS011;7466;53.574;9.976;2023-08-31T05:54:13;7.70;;;6.10;;
14748;SDS011;7466;53.574;9.976;2023-08-31T05:56:40;8.97;;;5.93;;
14748;SDS011;7466;53.574;9.976;2023-08-31T05:59:08;7.27;;;5.77;;
14748;SDS011;7466;53.574;9.976;2023-08-31T06:01:35;6.37;;;5.40;;
14748;SDS011;7466;53.574;9.976;2023-08-31T06:04:02;7.43;;;5.37;;
14748;SDS011;7466;53.574;9.976;2023-08-31T06:06:30;7.97;;;5.10;;
14748;SDS011;7466;53.574;9.976;2023-08-31T06:08:57;7.63;;;5.93;;
14748;SDS011;7466;53.574;9.976;2023-08-31T06:11:24;11.93;;;5.80;;
14748;SDS011;7466;53.574;9.976;2023-08-31T06:13:51;8.47;;;6.10;;
14748;SDS011;7466;53.574;9.976;2023-08-31T06:16:19;9.73;;;5.37;;
14748;SDS011;7466;53.574;9.976;2023-08-31T06:18:45;7.57;;;5.40;;
14748;SDS011;7466;53.574;9.976;2023-08-31T06:21:12;10.03;;;5.53;;
14748;SDS011;7466;53.574;9.976;2023-08-31T06:23:39;10.37;;;5.70;;
14748;SDS011;7466;53.574;9.976;2023-08-31T06:26:06;6.23;;;5.10;;
14748;SDS011;7466;53.574;9.976;2023-08-31T06:28:32;10.70;;;4.80;;
14748;SDS011;7466;53.574;9.976;2023-08-31T06:30:59;6.67;;;5.07;;
14748;SDS011;7466;53.574;9.976;2023-08-31T06:33:27;8.40;;;5.47;;
14748;SDS011;7466;53.574;9.976;2023-08-31T06:35:54;5.33;;;4.83;;
14748;SDS011;7466;53.574;9.976;2023-08-31T06:38:20;8.27;;;5.00;;
14748;SDS011;7466;53.574;9.976;2023-08-31T06:40:47;6.03;;;4.80;;
14748;SDS011;7466;53.574;9.976;2023-08-31T06:43:14;6.00;;;4.90;;
14748;SDS011;7466;53.574;9.976;2023-08-31T06:45:41;5.97;;;5.03;;
14748;SDS011;7466;53.574;9.976;2023-08-31T06:48:08;8.57;;;5.03;;
14748;SDS011;7466;53.574;9.976;2023-08-31T06:50:36;5.80;;;5.03;;
14748;SDS011;7466;53.574;9.976;2023-08-31T06:53:03;5.97;;;4.70;;
14748;SDS011;7466;53.574;9.976;2023-08-31T06:55:30;9.13;;;4.70;;
14748;SDS011;7466;53.574;9.976;2023-08-31T06:57:58;7.13;;;5.00;;
14748;SDS011;7466;53.574;9.976;2023-08-31T07:00:25;5.87;;;5.17;;
14748;SDS011;7466;53.574;9.976;2023-08-31T07:02:52;6.17;;;4.83;;
14748;SDS011;7466;53.574;9.976;2023-08-31T07:05:19;5.37;;;4.33;;
14748;SDS011;7466;53.574;9.976;2023-08-31T07:07:52;8.23;;;4.77;;
14748;SDS011;7466;53.574;9.976;2023-08-31T07:10:19;7.60;;;4.10;;
14748;SDS011;7466;53.574;9.976;2023-08-31T07:12:46;5.93;;;4.00;;
14748;SDS011;7466;53.574;9.976;2023-08-31T07:15:12;4.40;;;3.70;;
14748;SDS011;7466;53.574;9.976;2023-08-31T07:17:39;5.27;;;3.43;;
14748;SDS011;7466;53.574;9.976;2023-08-31T07:20:06;5.63;;;3.53;;
14748;SDS011;7466;53.574;9.976;2023-08-31T07:22:34;4.73;;;3.30;;
14748;SDS011;7466;53.574;9.976;2023-08-31T07:25:02;5.10;;;3.03;;
14748;SDS011;7466;53.574;9.976;2023-08-31T07:27:31;4.87;;;3.07;;
14748;SDS011;7466;53.574;9.976;2023-08-31T07:29:57;5.20;;;2.90;;
14748;SDS011;7466;53.574;9.976;2023-08-31T07:32:24;4.07;;;2.60;;
14748;SDS011;7466;53.574;9.976;2023-08-31T07:34:51;2.60;;;2.40;;
14748;SDS011;7466;53.574;9.976;2023-08-31T07:37:17;3.00;;;2.70;;
14748;SDS011;7466;53.574;9.976;2023-08-31T07:39:44;5.33;;;3.03;;
14748;SDS011;7466;53.574;9.976;2023-08-31T07:42:12;4.43;;;2.73;;
14748;SDS011;7466;53.574;9.976;2023-08-31T07:44:39;4.03;;;2.73;;
14748;SDS011;7466;53.574;9.976;2023-08-31T07:47:06;4.10;;;2.77;;
14748;SDS011;7466;53.574;9.976;2023-08-31T07:49:33;5.73;;;2.80;;
14748;SDS011;7466;53.574;9.976;2023-08-31T07:52:00;2.93;;;2.70;;
14748;SDS011;7466;53.574;9.976;2023-08-31T07:54:28;3.17;;;2.57;;
14748;SDS011;7466;53.574;9.976;2023-08-31T07:56:54;4.50;;;2.80;;
14748;SDS011;7466;53.574;9.976;2023-08-31T07:59:22;2.97;;;2.30;;
14748;SDS011;7466;53.574;9.976;2023-08-31T08:01:49;3.73;;;2.77;;
14748;SDS011;7466;53.574;9.976;2023-08-31T08:04:16;3.33;;;2.83;;
14748;SDS011;7466;53.574;9.976;2023-08-31T08:06:44;4.37;;;2.93;;
14748;SDS011;7466;53.574;9.976;2023-08-31T08:09:11;3.20;;;2.73;;
14748;SDS011;7466;53.574;9.976;2023-08-31T08:11:38;3.47;;;3.10;;
14748;SDS011;7466;53.574;9.976;2023-08-31T08:14:05;6.20;;;3.03;;
14748;SDS011;7466;53.574;9.976;2023-08-31T08:16:33;4.33;;;2.70;;
14748;SDS011;7466;53.574;9.976;2023-08-31T08:19:01;2.67;;;2.47;;
14748;SDS011;7466;53.574;9.976;2023-08-31T08:21:28;2.97;;;2.70;;
14748;SDS011;7466;53.574;9.976;2023-08-31T08:23:55;3.33;;;2.63;;
14748;SDS011;7466;53.574;9.976;2023-08-31T08:26:21;3.70;;;2.73;;
14748;SDS011;7466;53.574;9.976;2023-08-31T08:28:48;4.10;;;2.60;;
14748;SDS011;7466;53.574;9.976;2023-08-31T08:31:15;3.20;;;2.57;;
14748;SDS011;7466;53.574;9.976;2023-08-31T08:33:43;3.30;;;2.60;;
14748;SDS011;7466;53.574;9.976;2023-08-31T08:36:10;3.67;;;2.50;;
14748;SDS011;7466;53.574;9.976;2023-08-31T08:38:36;3.57;;;2.77;;
14748;SDS011;7466;53.574;9.976;2023-08-31T08:41:06;3.77;;;2.50;;
14748;SDS011;7466;53.574;9.976;2023-08-31T08:43:33;3.70;;;2.87;;
14748;SDS011;7466;53.574;9.976;2023-08-31T08:46:01;3.47;;;2.83;;
14748;SDS011;7466;53.574;9.976;2023-08-31T08:48:31;3.10;;;2.80;;
14748;SDS011;7466;53.574;9.976;2023-08-31T08:51:01;3.57;;;2.60;;
14748;SDS011;7466;53.574;9.976;2023-08-31T08:53:28;6.70;;;3.30;;
14748;SDS011;7466;53.574;9.976;2023-08-31T08:55:55;2.80;;;2.60;;
14748;SDS011;7466;53.574;9.976;2023-08-31T08:58:23;3.53;;;2.80;;
14748;SDS011;7466;53.574;9.976;2023-08-31T09:00:50;4.43;;;3.23;;
14748;SDS011;7466;53.574;9.976;2023-08-31T09:03:18;3.97;;;2.57;;
14748;SDS011;7466;53.574;9.976;2023-08-31T09:05:45;3.50;;;3.00;;
14748;SDS011;7466;53.574;9.976;2023-08-31T09:08:13;3.47;;;2.70;;
14748;SDS011;7466;53.574;9.976;2023-08-31T09:10:41;4.27;;;2.70;;
14748;SDS011;7466;53.574;9.976;2023-08-31T09:13:09;5.03;;;3.00;;
14748;SDS011;7466;53.574;9.976;2023-08-31T09:15:40;2.93;;;2.63;;
14748;SDS011;7466;53.574;9.976;2023-08-31T09:18:08;3.20;;;2.90;;
14748;SDS011;7466;53.574;9.976;2023-08-31T09:20:43;3.27;;;2.93;;
14748;SDS011;7466;53.574;9.976;2023-08-31T09:23:14;5.40;;;3.13;;
14748;SDS011;7466;53.574;9.976;2023-08-31T09:25:42;3.70;;;2.50;;
14748;SDS011;7466;53.574;9.976;2023-08-31T09:28:09;3.27;;;2.70;;
14748;SDS011;7466;53.574;9.976;2023-08-31T09:30:37;4.10;;;2.60;;
14748;SDS011;7466;53.574;9.976;2023-08-31T09:33:06;4.37;;;2.80;;
14748;SDS011;7466;53.574;9.976;2023-08-31T09:35:33;3.10;;;2.80;;
14748;SDS011;7466;53.574;9.976;2023-08-31T09:38:04;3.50;;;2.80;;
14748;SDS011;7466;53.574;9.976;2023-08-31T09:40:35;2.90;;;2.70;;
14748;SDS011;7466;53.574;9.976;2023-08-31T09:43:02;5.23;;;2.87;;
14748;SDS011;7466;53.574;9.976;2023-08-31T09:45:29;6.53;;;2.90;;
14748;SDS011;7466;53.574;9.976;2023-08-31T09:47:57;4.23;;;2.93;;
14748;SDS011;7466;53.574;9.976;2023-08-31T09:50:25;3.23;;;2.93;;
14748;SDS011;7466;53.574;9.976;2023-08-31T09:52:52;4.47;;;2.67;;
14748;SDS011;7466;53.574;9.976;2023-08-31T09:55:22;4.20;;;2.67;;
14748;SDS011;7466;53.574;9.976;2023-08-31T09:57:52;5.00;;;3.20;;
14748;SDS011;7466;53.574;9.976;2023-08-31T10:00:22;5.03;;;3.00;;
14748;SDS011;7466;53.574;9.976;2023-08-31T10:02:49;5.17;;;2.70;;
14748;SDS011;7466;53.574;9.976;2023-08-31T10:05:17;3.57;;;2.80;;
14748;SDS011;7466;53.574;9.976;2023-08-31T10:07:44;2.40;;;2.20;;
14748;SDS011;7466;53.574;9.976;2023-08-31T10:10:11;3.00;;;2.80;;
14748;SDS011;7466;53.574;9.976;2023-08-31T10:12:38;6.87;;;3.50;;
14748;SDS011;7466;53.574;9.976;2023-08-31T10:15:09;3.80;;;3.00;;
14748;SDS011;7466;53.574;9.976;2023-08-31T10:17:37;3.90;;;3.60;;
14748;SDS011;7466;53.574;9.976;2023-08-31T10:20:06;4.63;;;3.20;;
14748;SDS011;7466;53.574;9.976;2023-08-31T10:22:34;6.40;;;3.27;;
14748;SDS011;7466;53.574;9.976;2023-08-31T10:25:01;3.47;;;3.17;;
14748;SDS011;7466;53.574;9.976;2023-08-31T10:27:35;3.47;;;3.17;;
14748;SDS011;7466;53.574;9.976;2023-08-31T10:30:13;4.53;;;2.97;;
14748;SDS011;7466;53.574;9.976;2023-08-31T10:35:48;3.90;;;3.40;;
14748;SDS011;7466;53.574;9.976;2023-08-31T10:38:17;4.30;;;2.97;;
14748;SDS011;7466;53.574;9.976;2023-08-31T10:41:03;3.40;;;3.07;;
14748;SDS011;7466;53.574;9.976;2023-08-31T10:43:48;4.43;;;3.50;;
14748;SDS011;7466;53.574;9.976;2023-08-31T10:46:19;4.10;;;3.07;;
14748;SDS011;7466;53.574;9.976;2023-08-31T10:48:52;2.97;;;2.77;;
14748;SDS011;7466;53.574;9.976;2023-08-31T10:51:23;3.27;;;2.77;;
14748;SDS011;7466;53.574;9.976;2023-08-31T10:53:51;3.10;;;2.80;;
14748;SDS011;7466;53.574;9.976;2023-08-31T10:56:18;3.87;;;3.40;;
14748;SDS011;7466;53.574;9.976;2023-08-31T10:58:55;3.47;;;2.53;;
14748;SDS011;7466;53.574;9.976;2023-08-31T11:04:20;2.73;;;2.53;;
14748;SDS011;7466;53.574;9.976;2023-08-31T11:06:47;2.27;;;2.00;;
14748;SDS011;7466;53.574;9.976;2023-08-31T11:09:17;2.97;;;2.00;;
14748;SDS011;7466;53.574;9.976;2023-08-31T11:11:45;3.50;;;1.60;;
14748;SDS011;7466;53.574;9.976;2023-08-31T11:14:12;2.13;;;1.50;;
14748;SDS011;7466;53.574;9.976;2023-08-31T11:16:39;2.90;;;1.90;;
14748;SDS011;7466;53.574;9.976;2023-08-31T11:19:07;3.53;;;1.77;;
14748;SDS011;7466;53.574;9.976;2023-08-31T11:21:35;2.93;;;1.87;;
14748;SDS011;7466;53.574;9.976;2023-08-31T11:24:03;1.63;;;1.50;;
14748;SDS011;7466;53.574;9.976;2023-08-31T11:26:31;1.60;;;1.50;;
14748;SDS011;7466;53.574;9.976;2023-08-31T11:28:58;1.97;;;1.50;;
14748;SDS011;7466;53.574;9.976;2023-08-31T11:31:25;1.80;;;1.70;;
14748;SDS011;7466;53.574;9.976;2023-08-31T11:33:53;1.70;;;1.60;;
14748;SDS011;7466;53.574;9.976;2023-08-31T11:36:22;3.40;;;1.50;;
14748;SDS011;7466;53.574;9.976;2023-08-31T11:38:50;2.30;;;1.30;;
14748;SDS011;7466;53.574;9.976;2023-08-31T11:41:17;2.00;;;1.50;;
14748;SDS011;7466;53.574;9.976;2023-08-31T11:43:43;2.37;;;1.17;;
14748;SDS011;7466;53.574;9.976;2023-08-31T11:46:10;2.10;;;1.20;;
14748;SDS011;7466;53.574;9.976;2023-08-31T11:48:37;1.57;;;1.20;;
14748;SDS011;7466;53.574;9.976;2023-08-31T11:51:05;2.83;;;1.50;;
14748;SDS011;7466;53.574;9.976;2023-08-31T11:53:34;2.13;;;1.17;;
14748;SDS011;7466;53.574;9.976;2023-08-31T11:56:01;1.40;;;1.23;;
14748;SDS011;7466;53.574;9.976;2023-08-31T11:58:28;2.37;;;1.33;;
14748;SDS011;7466;53.574;9.976;2023-08-31T12:00:56;1.00;;;1.00;;
14748;SDS011;7466;53.574;9.976;2023-08-31T12:03:24;2.30;;;1.40;;
14748;SDS011;7466;53.574;9.976;2023-08-31T12:05:51;2.30;;;1.20;;
14748;SDS011;7466;53.574;9.976;2023-08-31T12:08:23;1.63;;;1.20;;
14748;SDS011;7466;53.574;9.976;2023-08-31T12:10:52;2.23;;;1.37;;
14748;SDS011;7466;53.574;9.976;2023-08-31T12:13:21;2.30;;;1.40;;
14748;SDS011;7466;53.574;9.976;2023-08-31T12:15:53;2.20;;;1.40;;
14748;SDS011;7466;53.574;9.976;2023-08-31T12:18:21;2.93;;;1.10;;
14748;SDS011;7466;53.574;9.976;2023-08-31T12:20:49;1.73;;;1.30;;
14748;SDS011;7466;53.574;9.976;2023-08-31T12:23:17;1.43;;;1.10;;
14748;SDS011;7466;53.574;9.976;2023-08-31T12:25:47;1.23;;;1.13;;
14748;SDS011;7466;53.574;9.976;2023-08-31T12:28:16;2.63;;;1.00;;
14748;SDS011;7466;53.574;9.976;2023-08-31T12:30:48;2.07;;;1.03;;
14748;SDS011;7466;53.574;9.976;2023-08-31T12:33:16;2.57;;;1.00;;
14748;SDS011;7466;53.574;9.976;2023-08-31T12:35:43;2.40;;;1.37;;
14748;SDS011;7466;53.574;9.976;2023-08-31T12:38:11;5.00;;;1.80;;
14748;SDS011;7466;53.574;9.976;2023-08-31T12:40:38;2.87;;;1.80;;
14748;SDS011;7466;53.574;9.976;2023-08-31T12:43:05;13.40;;;3.10;;
14748;SDS011;7466;53.574;9.976;2023-08-31T12:45:33;6.47;;;1.87;;
14748;SDS011;7466;53.574;9.976;2023-08-31T12:48:00;4.80;;;1.20;;
14748;SDS011;7466;53.574;9.976;2023-08-31T12:50:26;2.90;;;1.30;;
14748;SDS011;7466;53.574;9.976;2023-08-31T12:52:53;1.10;;;1.00;;
14748;SDS011;7466;53.574;9.976;2023-08-31T12:55:20;1.87;;;1.03;;
14748;SDS011;7466;53.574;9.976;2023-08-31T12:57:46;1.70;;;0.80;;
14748;SDS011;7466;53.574;9.976;2023-08-31T13:00:14;1.30;;;1.20;;
14748;SDS011;7466;53.574;9.976;2023-08-31T13:02:43;1.23;;;1.10;;
14748;SDS011;7466;53.574;9.976;2023-08-31T13:05:10;1.03;;;0.93;;
14748;SDS011;7466;53.574;9.976;2023-08-31T13:07:37;1.20;;;1.10;;
14748;SDS011;7466;53.574;9.976;2023-08-31T13:10:04;1.93;;;1.10;;
14748;SDS011;7466;53.574;9.976;2023-08-31T13:12:32;1.33;;;0.90;;
14748;SDS011;7466;53.574;9.976;2023-08-31T13:15:00;1.20;;;1.10;;
14748;SDS011;7466;53.574;9.976;2023-08-31T13:17:27;1.50;;;1.00;;
14748;SDS011;7466;53.574;9.976;2023-08-31T13:19:56;1.80;;;1.00;;
14748;SDS011;7466;53.574;9.976;2023-08-31T13:22:23;1.02;;;1.02;;
14748;SDS011;7466;53.574;9.976;2023-08-31T13:24:50;1.38;;;1.27;;
14748;SDS011;7466;53.574;9.976;2023-08-31T13:27:17;1.10;;;1.00;;
14748;SDS011;7466;53.574;9.976;2023-08-31T13:29:44;1.35;;;0.95;;
14748;SDS011;7466;53.574;9.976;2023-08-31T13:32:10;1.02;;;0.93;;
14748;SDS011;7466;53.574;9.976;2023-08-31T13:34:37;1.05;;;1.00;;
14748;SDS011;7466;53.574;9.976;2023-08-31T13:37:05;1.05;;;0.82;;
14748;SDS011;7466;53.574;9.976;2023-08-31T13:39:34;2.47;;;1.02;;
14748;SDS011;7466;53.574;9.976;2023-08-31T13:42:01;0.93;;;0.90;;
14748;SDS011;7466;53.574;9.976;2023-08-31T13:44:29;1.38;;;1.27;;
14748;SDS011;7466;53.574;9.976;2023-08-31T13:46:56;1.20;;;1.10;;
14748;SDS011;7466;53.574;9.976;2023-08-31T13:49:22;1.00;;;1.00;;
14748;SDS011;7466;53.574;9.976;2023-08-31T13:51:49;1.00;;;0.80;;
14748;SDS011;7466;53.574;9.976;2023-08-31T13:54:17;2.45;;;0.93;;
14748;SDS011;7466;53.574;9.976;2023-08-31T13:56:44;1.40;;;1.13;;
14748;SDS011;7466;53.574;9.976;2023-08-31T13:59:11;1.17;;;0.90;;
14748;SDS011;7466;53.574;9.976;2023-08-31T14:01:37;0.93;;;0.90;;
14748;SDS011;7466;53.574;9.976;2023-08-31T14:04:05;1.25;;;1.10;;
14748;SDS011;7466;53.574;9.976;2023-08-31T14:06:32;0.95;;;0.88;;
14748;SDS011;7466;53.574;9.976;2023-08-31T14:08:59;1.90;;;0.95;;
14748;SDS011;7466;53.574;9.976;2023-08-31T14:11:27;2.73;;;1.00;;
14748;SDS011;7466;53.574;9.976;2023-08-31T14:14:00;1.57;;;0.90;;
14748;SDS011;7466;53.574;9.976;2023-08-31T14:16:29;1.63;;;0.90;;
14748;SDS011;7466;53.574;9.976;2023-08-31T14:18:56;1.47;;;1.00;;
14748;SDS011;7466;53.574;9.976;2023-08-31T14:21:23;1.50;;;1.20;;
14748;SDS011;7466;53.574;9.976;2023-08-31T14:23:49;1.10;;;1.00;;
14748;SDS011;7466;53.574;9.976;2023-08-31T14:26:20;3.37;;;0.83;;
14748;SDS011;7466;53.574;9.976;2023-08-31T14:28:48;1.73;;;0.90;;
14748;SDS011;7466;53.574;9.976;2023-08-31T14:31:15;1.37;;;0.87;;
14748;SDS011;7466;53.574;9.976;2023-08-31T14:33:42;1.23;;;1.00;;
14748;SDS011;7466;53.574;9.976;2023-08-31T14:36:09;2.03;;;1.30;;
14748;SDS011;7466;53.574;9.976;2023-08-31T14:38:35;1.87;;;0.93;;
14748;SDS011;7466;53.574;9.976;2023-08-31T14:41:02;0.90;;;0.80;;
14748;SDS011;7466;53.574;9.976;2023-08-31T14:43:31;1.57;;;0.83;;
14748;SDS011;7466;53.574;9.976;2023-08-31T14:45:59;1.53;;;1.03;;
14748;SDS011;7466;53.574;9.976;2023-08-31T14:48:26;1.03;;;0.93;;
14748;SDS011;7466;53.574;9.976;2023-08-31T14:50:53;1.00;;;0.70;;
14748;SDS011;7466;53.574;9.976;2023-08-31T14:53:20;2.70;;;0.93;;
14748;SDS011;7466;53.574;9.976;2023-08-31T14:55:48;1.40;;;0.70;;
14748;SDS011;7466;53.574;9.976;2023-08-31T14:58:15;2.17;;;0.80;;
14748;SDS011;7466;53.574;9.976;2023-08-31T15:00:42;1.00;;;0.77;;
14748;SDS011;7466;53.574;9.976;2023-08-31T15:03:10;1.67;;;1.03;;
14748;SDS011;7466;53.574;9.976;2023-08-31T15:05:37;1.33;;;1.10;;